sensor_id;sensor_type;location;lat;lon;timestamp;pressure;altitude;pressure_sealevel;temperature;humidity
71361;BME280;59166;48.908;1.870;2022-09-21T00:00:17;101285.00;;;12.11;78.35
71361;BME280;59166;48.908;1.870;2022-09-21T00:05:18;101288.75;;;12.10;78.70
71361;BME280;59166;48.908;1.870;2022-09-21T00:10:19;101287.72;;;12.11;78.86
71361;BME280;59166;48.908;1.870;2022-09-21T00:15:22;101284.56;;;12.03;78.84
71361;BME280;59166;48.908;1.870;2022-09-21T00:20:23;101284.66;;;11.91;79.67
71361;BME280;59166;48.908;1.870;2022-09-21T00:25:24;101290.06;;;11.74;80.62
71361;BME280;59166;48.908;1.870;2022-09-21T00:30:26;101287.41;;;11.63;81.19
71361;BME280;59166;48.908;1.870;2022-09-21T00:35:27;101295.81;;;11.50;81.48
71361;BME280;59166;48.908;1.870;2022-09-21T00:40:28;101295.53;;;11.34;82.49
71361;BME280;59166;48.908;1.870;2022-09-21T00:45:31;101296.75;;;11.27;83.22
71361;BME280;59166;48.908;1.870;2022-09-21T00:50:32;101296.28;;;11.18;83.62
71361;BME280;59166;48.908;1.870;2022-09-21T00:55:38;101295.16;;;11.14;83.98
71361;BME280;59166;48.908;1.870;2022-09-21T01:00:41;101291.41;;;11.04;84.16
71361;BME280;59166;48.908;1.870;2022-09-21T01:05:42;101291.06;;;11.00;84.08
71361;BME280;59166;48.908;1.870;2022-09-21T01:10:53;101285.31;;;10.97;84.36
71361;BME280;59166;48.908;1.870;2022-09-21T01:16:02;101284.63;;;10.90;84.40
71361;BME280;59166;48.908;1.870;2022-09-21T01:21:19;101287.09;;;10.79;84.90
71361;BME280;59166;48.908;1.870;2022-09-21T01:26:30;101287.34;;;10.66;85.84
71361;BME280;59166;48.908;1.870;2022-09-21T01:31:40;101293.34;;;10.57;85.84
71361;BME280;59166;48.908;1.870;2022-09-21T01:36:46;101290.63;;;10.57;85.90
71361;BME280;59166;48.908;1.870;2022-09-21T01:41:49;101292.97;;;10.53;85.49
71361;BME280;59166;48.908;1.870;2022-09-21T01:46:54;101285.69;;;10.54;85.70
71361;BME280;59166;48.908;1.870;2022-09-21T01:51:59;101278.03;;;10.51;85.70
71361;BME280;59166;48.908;1.870;2022-09-21T01:57:07;101283.22;;;10.41;86.71
71361;BME280;59166;48.908;1.870;2022-09-21T02:02:15;101277.81;;;10.52;85.69
71361;BME280;59166;48.908;1.870;2022-09-21T02:07:18;101269.81;;;10.69;86.02
71361;BME280;59166;48.908;1.870;2022-09-21T02:12:18;101281.50;;;11.09;83.63
71361;BME280;59166;48.908;1.870;2022-09-21T02:17:35;101278.66;;;11.16;84.38
71361;BME280;59166;48.908;1.870;2022-09-21T02:22:45;101281.28;;;11.11;85.26
71361;BME280;59166;48.908;1.870;2022-09-21T02:27:52;101277.91;;;10.92;85.15
71361;BME280;59166;48.908;1.870;2022-09-21T02:32:59;101275.94;;;10.76;85.48
71361;BME280;59166;48.908;1.870;2022-09-21T02:38:09;101277.78;;;10.64;86.25
71361;BME280;59166;48.908;1.870;2022-09-21T02:43:18;101275.09;;;10.64;86.02
71361;BME280;59166;48.908;1.870;2022-09-21T02:48:26;101267.13;;;10.57;85.78
71361;BME280;59166;48.908;1.870;2022-09-21T02:53:32;101268.78;;;10.47;86.53
71361;BME280;59166;48.908;1.870;2022-09-21T02:58:37;101272.31;;;10.35;87.54
71361;BME280;59166;48.908;1.870;2022-09-21T03:03:41;101276.75;;;10.30;87.67
71361;BME280;59166;48.908;1.870;2022-09-21T03:08:42;101269.25;;;10.20;88.06
71361;BME280;59166;48.908;1.870;2022-09-21T03:13:43;101282.63;;;10.15;88.39
71361;BME280;59166;48.908;1.870;2022-09-21T03:18:45;101280.41;;;10.12;88.20
71361;BME280;59166;48.908;1.870;2022-09-21T03:23:46;101279.69;;;10.05;89.19
71361;BME280;59166;48.908;1.870;2022-09-21T03:28:47;101279.44;;;9.95;89.27
71361;BME280;59166;48.908;1.870;2022-09-21T03:33:50;101278.56;;;9.83;89.57
71361;BME280;59166;48.908;1.870;2022-09-21T03:38:51;101290.31;;;9.77;90.42
71361;BME280;59166;48.908;1.870;2022-09-21T03:43:52;101289.00;;;9.68;91.23
71361;BME280;59166;48.908;1.870;2022-09-21T03:48:54;101288.28;;;9.61;90.96
71361;BME280;59166;48.908;1.870;2022-09-21T03:53:55;101281.69;;;9.57;91.28
71361;BME280;59166;48.908;1.870;2022-09-21T03:58:56;101289.88;;;9.50;92.08
71361;BME280;59166;48.908;1.870;2022-09-21T04:03:59;101286.81;;;9.47;93.69
71361;BME280;59166;48.908;1.870;2022-09-21T04:09:00;101278.59;;;9.42;93.19
71361;BME280;59166;48.908;1.870;2022-09-21T04:14:01;101271.75;;;9.39;93.25
71361;BME280;59166;48.908;1.870;2022-09-21T04:19:03;101268.28;;;9.39;93.81
71361;BME280;59166;48.908;1.870;2022-09-21T04:24:05;101281.38;;;9.35;94.96
71361;BME280;59166;48.908;1.870;2022-09-21T04:29:05;101272.09;;;9.31;94.30
71361;BME280;59166;48.908;1.870;2022-09-21T04:34:08;101277.50;;;9.31;93.88
71361;BME280;59166;48.908;1.870;2022-09-21T04:39:12;101282.88;;;9.31;94.70
71361;BME280;59166;48.908;1.870;2022-09-21T04:44:13;101284.19;;;9.28;93.97
71361;BME280;59166;48.908;1.870;2022-09-21T04:49:15;101284.59;;;9.25;94.54
71361;BME280;59166;48.908;1.870;2022-09-21T04:54:16;101283.66;;;9.20;95.15
71361;BME280;59166;48.908;1.870;2022-09-21T04:59:17;101288.53;;;9.11;95.51
71361;BME280;59166;48.908;1.870;2022-09-21T05:04:19;101287.94;;;9.09;95.85
71361;BME280;59166;48.908;1.870;2022-09-21T05:09:20;101290.50;;;9.04;96.05
71361;BME280;59166;48.908;1.870;2022-09-21T05:14:21;101289.97;;;8.96;96.36
71361;BME280;59166;48.908;1.870;2022-09-21T05:19:24;101291.81;;;8.95;95.76
71361;BME280;59166;48.908;1.870;2022-09-21T05:24:24;101286.88;;;8.92;95.56
71361;BME280;59166;48.908;1.870;2022-09-21T05:29:26;101279.34;;;9.01;96.92
71361;BME280;59166;48.908;1.870;2022-09-21T05:34:44;101274.38;;;9.16;96.61
71361;BME280;59166;48.908;1.870;2022-09-21T05:39:47;101278.78;;;9.28;96.63
71361;BME280;59166;48.908;1.870;2022-09-21T05:44:49;101276.00;;;9.35;95.35
71361;BME280;59166;48.908;1.870;2022-09-21T05:49:59;101283.47;;;9.33;93.54
71361;BME280;59166;48.908;1.870;2022-09-21T05:55:08;101278.94;;;9.15;91.74
71361;BME280;59166;48.908;1.870;2022-09-21T06:00:16;101287.50;;;8.94;93.25
71361;BME280;59166;48.908;1.870;2022-09-21T06:05:20;101292.84;;;8.76;94.79
71361;BME280;59166;48.908;1.870;2022-09-21T06:10:21;101282.28;;;8.74;95.58
71361;BME280;59166;48.908;1.870;2022-09-21T06:15:22;101292.66;;;8.77;97.73
71361;BME280;59166;48.908;1.870;2022-09-21T06:20:25;101294.66;;;8.82;99.30
71361;BME280;59166;48.908;1.870;2022-09-21T06:25:25;101299.78;;;8.90;98.84
71361;BME280;59166;48.908;1.870;2022-09-21T06:30:26;101300.19;;;9.05;98.35
71361;BME280;59166;48.908;1.870;2022-09-21T06:35:30;101294.66;;;9.18;97.44
71361;BME280;59166;48.908;1.870;2022-09-21T06:40:32;101297.31;;;9.37;96.66
71361;BME280;59166;48.908;1.870;2022-09-21T06:45:33;101299.97;;;9.55;95.59
71361;BME280;59166;48.908;1.870;2022-09-21T06:50:36;101301.06;;;9.65;95.85
71361;BME280;59166;48.908;1.870;2022-09-21T06:55:36;101305.91;;;9.75;95.95
71361;BME280;59166;48.908;1.870;2022-09-21T07:00:37;101293.41;;;9.92;95.63
71361;BME280;59166;48.908;1.870;2022-09-21T07:05:40;101294.59;;;10.08;94.39
71361;BME280;59166;48.908;1.870;2022-09-21T07:10:44;101298.72;;;10.33;93.05
71361;BME280;59166;48.908;1.870;2022-09-21T07:15:44;101287.81;;;10.63;90.85
71361;BME280;59166;48.908;1.870;2022-09-21T07:20:47;101287.94;;;10.80;91.50
71361;BME280;59166;48.908;1.870;2022-09-21T07:25:48;101287.63;;;11.05;90.34
71361;BME280;59166;48.908;1.870;2022-09-21T07:30:49;101285.53;;;11.35;87.35
71361;BME280;59166;48.908;1.870;2022-09-21T07:35:53;101282.25;;;11.61;85.48
71361;BME280;59166;48.908;1.870;2022-09-21T07:40:53;101284.56;;;11.86;85.47
71361;BME280;59166;48.908;1.870;2022-09-21T07:45:54;101286.00;;;12.05;86.78
71361;BME280;59166;48.908;1.870;2022-09-21T07:51:01;101290.66;;;12.26;81.85
71361;BME280;59166;48.908;1.870;2022-09-21T07:56:03;101294.69;;;12.41;80.86
71361;BME280;59166;48.908;1.870;2022-09-21T08:01:05;101287.69;;;12.61;80.39
71361;BME280;59166;48.908;1.870;2022-09-21T08:06:07;101289.34;;;12.84;79.54
71361;BME280;59166;48.908;1.870;2022-09-21T08:11:08;101300.13;;;13.01;79.42
71361;BME280;59166;48.908;1.870;2022-09-21T08:16:09;101295.28;;;13.24;77.99
71361;BME280;59166;48.908;1.870;2022-09-21T08:21:12;101298.72;;;13.63;77.07
71361;BME280;59166;48.908;1.870;2022-09-21T08:26:14;101295.53;;;13.98;75.20
71361;BME280;59166;48.908;1.870;2022-09-21T08:31:16;101291.50;;;14.42;75.29
71361;BME280;59166;48.908;1.870;2022-09-21T08:36:19;101289.16;;;14.98;71.89
71361;BME280;59166;48.908;1.870;2022-09-21T08:41:23;101288.16;;;15.19;69.47
71361;BME280;59166;48.908;1.870;2022-09-21T08:46:26;101286.66;;;15.64;68.51
71361;BME280;59166;48.908;1.870;2022-09-21T08:51:33;101286.16;;;15.87;68.04
71361;BME280;59166;48.908;1.870;2022-09-21T08:56:35;101286.41;;;15.95;67.87
71361;BME280;59166;48.908;1.870;2022-09-21T09:01:47;101298.69;;;16.28;66.92
71361;BME280;59166;48.908;1.870;2022-09-21T09:07:01;101290.50;;;16.43;64.49
71361;BME280;59166;48.908;1.870;2022-09-21T09:12:14;101300.00;;;16.66;64.01
71361;BME280;59166;48.908;1.870;2022-09-21T09:17:29;101296.75;;;16.59;62.96
71361;BME280;59166;48.908;1.870;2022-09-21T09:22:39;101297.53;;;16.85;64.57
71361;BME280;59166;48.908;1.870;2022-09-21T09:27:43;101292.56;;;17.02;61.70
71361;BME280;59166;48.908;1.870;2022-09-21T09:33:07;101287.19;;;16.72;61.30
71361;BME280;59166;48.908;1.870;2022-09-21T09:38:20;101296.41;;;16.91;61.05
71361;BME280;59166;48.908;1.870;2022-09-21T09:43:32;101290.59;;;17.03;60.43
71361;BME280;59166;48.908;1.870;2022-09-21T09:49:01;101288.66;;;17.23;61.84
71361;BME280;59166;48.908;1.870;2022-09-21T09:54:12;101286.97;;;17.32;58.62
71361;BME280;59166;48.908;1.870;2022-09-21T09:59:21;101286.00;;;16.98;58.59
71361;BME280;59166;48.908;1.870;2022-09-21T10:04:23;101292.28;;;16.99;58.33
71361;BME280;59166;48.908;1.870;2022-09-21T10:09:27;101294.69;;;17.10;57.32
71361;BME280;59166;48.908;1.870;2022-09-21T10:14:33;101277.75;;;17.18;57.20
71361;BME280;59166;48.908;1.870;2022-09-21T10:19:34;101273.34;;;17.27;55.25
71361;BME280;59166;48.908;1.870;2022-09-21T10:24:37;101277.34;;;17.40;55.39
71361;BME280;59166;48.908;1.870;2022-09-21T10:29:40;101273.84;;;17.34;55.35
71361;BME280;59166;48.908;1.870;2022-09-21T10:34:59;101275.50;;;17.74;56.93
71361;BME280;59166;48.908;1.870;2022-09-21T10:40:26;101256.78;;;18.25;54.06
71361;BME280;59166;48.908;1.870;2022-09-21T10:45:28;101267.84;;;18.10;50.68
71361;BME280;59166;48.908;1.870;2022-09-21T10:50:35;101261.25;;;18.45;52.48
71361;BME280;59166;48.908;1.870;2022-09-21T10:55:40;101259.53;;;17.91;51.50
71361;BME280;59166;48.908;1.870;2022-09-21T11:00:43;101243.84;;;18.02;51.04
71361;BME280;59166;48.908;1.870;2022-09-21T11:05:44;101254.97;;;18.44;49.05
71361;BME280;59166;48.908;1.870;2022-09-21T11:10:52;101259.19;;;18.61;48.05
71361;BME280;59166;48.908;1.870;2022-09-21T11:16:00;101244.69;;;18.60;47.23
71361;BME280;59166;48.908;1.870;2022-09-21T11:21:10;101252.31;;;18.87;47.55
71361;BME280;59166;48.908;1.870;2022-09-21T11:26:20;101240.41;;;19.20;46.75
71361;BME280;59166;48.908;1.870;2022-09-21T11:31:37;101251.94;;;19.17;47.66
71361;BME280;59166;48.908;1.870;2022-09-21T11:36:48;101242.63;;;19.18;44.70
71361;BME280;59166;48.908;1.870;2022-09-21T11:42:01;101236.66;;;19.35;44.63
71361;BME280;59166;48.908;1.870;2022-09-21T11:47:12;101225.16;;;19.52;43.10
71361;BME280;59166;48.908;1.870;2022-09-21T11:52:40;101231.69;;;19.18;43.89
71361;BME280;59166;48.908;1.870;2022-09-21T11:57:53;101213.41;;;19.09;44.74
71361;BME280;59166;48.908;1.870;2022-09-21T12:03:21;101210.50;;;19.24;44.06
71361;BME280;59166;48.908;1.870;2022-09-21T12:08:43;101209.09;;;19.45;44.18
71361;BME280;59166;48.908;1.870;2022-09-21T12:13:52;101216.69;;;19.29;43.41
71361;BME280;59166;48.908;1.870;2022-09-21T12:18:59;101208.13;;;18.93;44.96
71361;BME280;59166;48.908;1.870;2022-09-21T12:24:04;101214.66;;;19.21;44.98
71361;BME280;59166;48.908;1.870;2022-09-21T12:29:14;101210.78;;;19.22;44.05
71361;BME280;59166;48.908;1.870;2022-09-21T12:34:18;101211.53;;;19.28;43.11
71361;BME280;59166;48.908;1.870;2022-09-21T12:39:25;101205.00;;;19.42;43.08
71361;BME280;59166;48.908;1.870;2022-09-21T12:44:36;101195.78;;;19.38;43.39
71361;BME280;59166;48.908;1.870;2022-09-21T12:49:42;101189.22;;;19.53;44.65
71361;BME280;59166;48.908;1.870;2022-09-21T12:54:47;101173.84;;;19.71;43.12
71361;BME280;59166;48.908;1.870;2022-09-21T12:59:57;101187.06;;;19.69;42.74
71361;BME280;59166;48.908;1.870;2022-09-21T13:05:06;101174.47;;;19.68;41.96
71361;BME280;59166;48.908;1.870;2022-09-21T13:10:15;101171.28;;;19.93;42.11
71361;BME280;59166;48.908;1.870;2022-09-21T13:15:22;101176.84;;;19.88;42.86
71361;BME280;59166;48.908;1.870;2022-09-21T13:20:23;101168.22;;;19.48;44.75
71361;BME280;59166;48.908;1.870;2022-09-21T13:25:25;101171.28;;;19.93;43.52
71361;BME280;59166;48.908;1.870;2022-09-21T13:30:35;101166.69;;;19.56;43.66
71361;BME280;59166;48.908;1.870;2022-09-21T13:35:53;101165.03;;;19.41;44.71
71361;BME280;59166;48.908;1.870;2022-09-21T13:41:00;101150.06;;;19.66;44.41
71361;BME280;59166;48.908;1.870;2022-09-21T13:46:03;101136.75;;;19.92;42.08
71361;BME280;59166;48.908;1.870;2022-09-21T13:51:07;101144.81;;;20.02;41.81
71361;BME280;59166;48.908;1.870;2022-09-21T13:56:16;101134.34;;;20.18;40.60
71361;BME280;59166;48.908;1.870;2022-09-21T14:01:21;101122.75;;;20.07;41.45
71361;BME280;59166;48.908;1.870;2022-09-21T14:06:26;101123.19;;;20.14;41.05
71361;BME280;59166;48.908;1.870;2022-09-21T14:11:30;101109.53;;;19.95;41.30
71361;BME280;59166;48.908;1.870;2022-09-21T14:16:53;101110.28;;;20.01;40.61
71361;BME280;59166;48.908;1.870;2022-09-21T14:27:32;101113.94;;;20.10;40.78
71361;BME280;59166;48.908;1.870;2022-09-21T14:32:49;101104.66;;;19.92;41.03
71361;BME280;59166;48.908;1.870;2022-09-21T14:38:16;101093.72;;;20.20;41.04
71361;BME280;59166;48.908;1.870;2022-09-21T14:43:20;101096.09;;;19.80;40.59
71361;BME280;59166;48.908;1.870;2022-09-21T14:48:33;101093.06;;;19.95;41.13
71361;BME280;59166;48.908;1.870;2022-09-21T14:53:53;101089.66;;;20.04;40.52
71361;BME280;59166;48.908;1.870;2022-09-21T14:59:05;101099.44;;;20.23;41.03
71361;BME280;59166;48.908;1.870;2022-09-21T15:04:43;101091.91;;;20.15;39.64
71361;BME280;59166;48.908;1.870;2022-09-21T15:10:02;101081.94;;;20.19;38.45
71361;BME280;59166;48.908;1.870;2022-09-21T15:15:22;101077.44;;;19.96;40.44
71361;BME280;59166;48.908;1.870;2022-09-21T15:20:29;101076.31;;;19.97;39.62
71361;BME280;59166;48.908;1.870;2022-09-21T15:25:31;101072.03;;;19.77;40.29
71361;BME280;59166;48.908;1.870;2022-09-21T15:30:40;101065.84;;;19.85;41.11
71361;BME280;59166;48.908;1.870;2022-09-21T15:35:45;101072.56;;;19.93;41.08
71361;BME280;59166;48.908;1.870;2022-09-21T15:40:46;101071.94;;;19.82;39.56
71361;BME280;59166;48.908;1.870;2022-09-21T15:45:49;101066.66;;;19.86;40.05
71361;BME280;59166;48.908;1.870;2022-09-21T15:50:55;101058.63;;;19.76;39.12
71361;BME280;59166;48.908;1.870;2022-09-21T15:55:57;101046.66;;;19.72;39.82
71361;BME280;59166;48.908;1.870;2022-09-21T16:00:58;101056.28;;;19.69;40.72
71361;BME280;59166;48.908;1.870;2022-09-21T16:06:17;101048.22;;;19.45;40.18
71361;BME280;59166;48.908;1.870;2022-09-21T16:11:32;101048.34;;;19.54;40.35
71361;BME280;59166;48.908;1.870;2022-09-21T16:17:05;101047.41;;;19.45;39.34
71361;BME280;59166;48.908;1.870;2022-09-21T16:22:22;101052.75;;;19.36;39.94
71361;BME280;59166;48.908;1.870;2022-09-21T16:27:25;101040.38;;;19.25;40.52
71361;BME280;59166;48.908;1.870;2022-09-21T16:32:29;101034.94;;;19.20;41.08
71361;BME280;59166;48.908;1.870;2022-09-21T16:37:32;101038.72;;;19.06;41.19
71361;BME280;59166;48.908;1.870;2022-09-21T16:42:32;101037.13;;;18.86;42.07
71361;BME280;59166;48.908;1.870;2022-09-21T16:47:35;101043.28;;;18.78;41.33
71361;BME280;59166;48.908;1.870;2022-09-21T16:52:38;101044.69;;;18.57;42.28
71361;BME280;59166;48.908;1.870;2022-09-21T16:57:39;101061.28;;;18.41;43.31
71361;BME280;59166;48.908;1.870;2022-09-21T17:02:40;101048.78;;;18.17;42.80
71361;BME280;59166;48.908;1.870;2022-09-21T17:07:48;101054.63;;;18.05;43.90
71361;BME280;59166;48.908;1.870;2022-09-21T17:12:49;101050.34;;;17.94;44.43
71361;BME280;59166;48.908;1.870;2022-09-21T17:17:50;101055.44;;;17.82;45.66
71361;BME280;59166;48.908;1.870;2022-09-21T17:22:52;101049.59;;;17.65;45.87
71361;BME280;59166;48.908;1.870;2022-09-21T17:27:53;101050.66;;;17.40;47.18
71361;BME280;59166;48.908;1.870;2022-09-21T17:32:54;101040.44;;;17.22;48.11
71361;BME280;59166;48.908;1.870;2022-09-21T17:37:56;101044.16;;;16.97;49.42
71361;BME280;59166;48.908;1.870;2022-09-21T17:43:02;101044.59;;;16.75;49.48
71361;BME280;59166;48.908;1.870;2022-09-21T17:48:12;101059.41;;;16.59;50.26
71361;BME280;59166;48.908;1.870;2022-09-21T17:53:18;101057.81;;;16.53;51.41
71361;BME280;59166;48.908;1.870;2022-09-21T17:58:36;101058.47;;;16.30;51.47
71361;BME280;59166;48.908;1.870;2022-09-21T18:03:41;101056.63;;;16.15;52.84
71361;BME280;59166;48.908;1.870;2022-09-21T18:08:44;101058.53;;;16.05;52.74
71361;BME280;59166;48.908;1.870;2022-09-21T18:13:52;101066.78;;;15.89;52.47
71361;BME280;59166;48.908;1.870;2022-09-21T18:19:04;101079.63;;;15.69;53.72
71361;BME280;59166;48.908;1.870;2022-09-21T18:24:19;101086.16;;;15.58;53.32
71361;BME280;59166;48.908;1.870;2022-09-21T18:29:25;101082.38;;;15.49;53.67
71361;BME280;59166;48.908;1.870;2022-09-21T18:40:16;101078.56;;;15.34;54.42
71361;BME280;59166;48.908;1.870;2022-09-21T18:45:23;101091.09;;;15.35;53.87
71361;BME280;59166;48.908;1.870;2022-09-21T18:50:32;101089.47;;;15.39;53.36
71361;BME280;59166;48.908;1.870;2022-09-21T18:55:37;101088.94;;;15.32;54.30
71361;BME280;59166;48.908;1.870;2022-09-21T19:00:38;101090.56;;;15.33;53.27
71361;BME280;59166;48.908;1.870;2022-09-21T19:05:50;101090.28;;;15.35;53.02
71361;BME280;59166;48.908;1.870;2022-09-21T19:11:00;101090.56;;;15.38;53.25
71361;BME280;59166;48.908;1.870;2022-09-21T19:16:10;101090.81;;;15.37;53.05
71361;BME280;59166;48.908;1.870;2022-09-21T19:21:22;101098.16;;;15.31;53.60
71361;BME280;59166;48.908;1.870;2022-09-21T19:26:32;101097.63;;;15.29;53.49
71361;BME280;59166;48.908;1.870;2022-09-21T19:31:35;101104.16;;;15.23;54.22
71361;BME280;59166;48.908;1.870;2022-09-21T19:36:36;101110.69;;;15.12;54.37
71361;BME280;59166;48.908;1.870;2022-09-21T19:41:46;101103.63;;;15.06;55.01
71361;BME280;59166;48.908;1.870;2022-09-21T19:46:58;101114.19;;;14.98;55.75
71361;BME280;59166;48.908;1.870;2022-09-21T19:52:02;101108.72;;;14.92;55.60
71361;BME280;59166;48.908;1.870;2022-09-21T19:57:12;101109.81;;;14.91;55.80
71361;BME280;59166;48.908;1.870;2022-09-21T20:02:16;101102.44;;;14.87;56.07
71361;BME280;59166;48.908;1.870;2022-09-21T20:07:28;101097.81;;;14.77;56.31
71361;BME280;59166;48.908;1.870;2022-09-21T20:12:41;101099.41;;;14.73;56.39
71361;BME280;59166;48.908;1.870;2022-09-21T20:17:48;101100.50;;;14.67;56.73
71361;BME280;59166;48.908;1.870;2022-09-21T20:22:50;101097.78;;;14.67;56.81
71361;BME280;59166;48.908;1.870;2022-09-21T20:27:54;101108.38;;;14.64;56.93
71361;BME280;59166;48.908;1.870;2022-09-21T20:32:57;101099.97;;;14.65;56.93
71361;BME280;59166;48.908;1.870;2022-09-21T20:38:19;101103.72;;;14.59;57.34
71361;BME280;59166;48.908;1.870;2022-09-21T20:43:22;101095.31;;;14.56;57.20
71361;BME280;59166;48.908;1.870;2022-09-21T20:48:23;101090.41;;;14.63;56.85
71361;BME280;59166;48.908;1.870;2022-09-21T20:53:24;101083.91;;;14.59;57.02
71361;BME280;59166;48.908;1.870;2022-09-21T20:58:27;101085.50;;;14.60;57.62
71361;BME280;59166;48.908;1.870;2022-09-21T21:03:27;101083.91;;;14.59;56.88
71361;BME280;59166;48.908;1.870;2022-09-21T21:08:29;101080.06;;;14.55;57.36
71361;BME280;59166;48.908;1.870;2022-09-21T21:13:32;101081.97;;;14.54;57.41
71361;BME280;59166;48.908;1.870;2022-09-21T21:18:33;101079.50;;;14.53;57.31
71361;BME280;59166;48.908;1.870;2022-09-21T21:23:34;101080.03;;;14.50;57.51
71361;BME280;59166;48.908;1.870;2022-09-21T21:28:36;101074.59;;;14.45;57.52
71361;BME280;59166;48.908;1.870;2022-09-21T21:33:37;101076.25;;;14.46;58.11
71361;BME280;59166;48.908;1.870;2022-09-21T21:38:38;101078.16;;;14.45;57.73
71361;BME280;59166;48.908;1.870;2022-09-21T21:43:41;101077.53;;;14.28;58.52
71361;BME280;59166;48.908;1.870;2022-09-21T21:48:41;101091.38;;;14.26;58.57
71361;BME280;59166;48.908;1.870;2022-09-21T21:53:43;101082.63;;;14.14;59.08
71361;BME280;59166;48.908;1.870;2022-09-21T21:58:46;101083.66;;;13.98;59.89
71361;BME280;59166;48.908;1.870;2022-09-21T22:03:50;101080.84;;;13.83;60.77
71361;BME280;59166;48.908;1.870;2022-09-21T22:08:52;101083.44;;;13.68;61.15
71361;BME280;59166;48.908;1.870;2022-09-21T22:13:55;101072.50;;;13.58;61.52
71361;BME280;59166;48.908;1.870;2022-09-21T22:18:57;101061.56;;;13.48;62.04
71361;BME280;59166;48.908;1.870;2022-09-21T22:24:00;101055.34;;;13.47;62.07
71361;BME280;59166;48.908;1.870;2022-09-21T22:29:04;101059.34;;;13.39;64.02
71361;BME280;59166;48.908;1.870;2022-09-21T22:34:06;101060.34;;;13.28;63.37
71361;BME280;59166;48.908;1.870;2022-09-21T22:39:07;101055.91;;;13.17;64.12
71361;BME280;59166;48.908;1.870;2022-09-21T22:44:09;101056.63;;;13.08;65.03
71361;BME280;59166;48.908;1.870;2022-09-21T22:49:30;101055.25;;;13.00;64.14
71361;BME280;59166;48.908;1.870;2022-09-21T22:54:31;101051.13;;;12.98;65.40
71361;BME280;59166;48.908;1.870;2022-09-21T22:59:34;101053.41;;;12.79;66.85
71361;BME280;59166;48.908;1.870;2022-09-21T23:04:35;101048.28;;;12.56;67.55
71361;BME280;59166;48.908;1.870;2022-09-21T23:09:36;101044.03;;;12.38;67.99
71361;BME280;59166;48.908;1.870;2022-09-21T23:14:39;101043.06;;;12.27;69.51
71361;BME280;59166;48.908;1.870;2022-09-21T23:19:39;101042.22;;;12.27;69.34
71361;BME280;59166;48.908;1.870;2022-09-21T23:24:40;101031.50;;;12.32;69.24
71361;BME280;59166;48.908;1.870;2022-09-21T23:29:43;101023.31;;;12.54;66.70
71361;BME280;59166;48.908;1.870;2022-09-21T23:34:53;101023.84;;;12.51;68.90
71361;BME280;59166;48.908;1.870;2022-09-21T23:39:54;101027.56;;;12.23;69.76
71361;BME280;59166;48.908;1.870;2022-09-21T23:44:56;101021.16;;;12.07;69.25
71361;BME280;59166;48.908;1.870;2022-09-21T23:49:57;101018.69;;;11.84;69.43
71361;BME280;59166;48.908;1.870;2022-09-21T23:54:58;101009.38;;;11.75;70.12
